LPMA

Details ICAO LPMA (FNC)
Name Madeira/Funchal - Cristiano Ronaldo
Region Portugal
Timezone Atlantic/Madeira (UTC+1.0)
Plans Departing 1261
Arriving 2031
Stats Elevation 189 ft / 58 m (AMSL)
Location 32.697900° -16.774400°
Runways 1
Magnetic Variation 4.879° W
Sunrise 2018-10-15 07:12:02 UTC / 2018-10-15 08:12:02 Local
Sunset 2018-10-15 18:36:02 UTC / 2018-10-15 19:36:02 Local
Advertisement - Login to hide

Runways

ID Width Length Bearing (true/mag) Surface Threshold Overrun Markings Lighting
05 148 ft / 45 m 9,133 ft / 2,784 m 44.60° / 49.48° ASPHALT 482 ft / 147 m 0 ft / 0 m PREC-APP CENTERLINE EDGE THRESHOLD TDZ REIL-OMNI
23 148 ft / 45 m 9,133 ft / 2,784 m 224.61° / 229.49° ASPHALT 482 ft / 147 m 0 ft / 0 m PREC-APP CENTERLINE EDGE THRESHOLD TDZ REIL-OMNI

Map

Weather


0- 5 10 15 20 25 30 35+ Temperature / °C

Clouds and Precipitation
Forecast for 2018-10-16 00:00 UTC. Updated 2 hours ago

Ground ~20,000 ft ~40,000 ft Winds

METAR

LPMA 152330Z 31006KT 220V010 9999 FEW016 20/16 Q1020

TAF

TAF LPMA 151700Z 1518/1618 VRB05KT 9999 SCT015 SCT030 PROB40 TEMPO 1522/1608 34008KT BKN015 BECMG 1608/1611 01010KT

Frequencies

Tower 118.35 MHz
Recorded 124.40 MHz ATIS
Approach 119.60 MHz
Warning: Do not use this data for real-world aviation or navigation. No guarantee of current accuracy is given.